sensor_id;sensor_type;location;lat;lon;timestamp;P1;durP1;ratioP1;P2;durP2;ratioP2
23732;SDS011;12047;53.450;-2.286;2023-06-10T00:01:56;15.00;;;8.82;;
23732;SDS011;12047;53.450;-2.286;2023-06-10T00:06:59;20.33;;;9.23;;
23732;SDS011;12047;53.450;-2.286;2023-06-10T00:12:00;14.60;;;8.68;;
23732;SDS011;12047;53.450;-2.286;2023-06-10T00:17:01;16.35;;;9.57;;
23732;SDS011;12047;53.450;-2.286;2023-06-10T00:22:02;16.98;;;9.57;;
23732;SDS011;12047;53.450;-2.286;2023-06-10T00:27:03;15.98;;;9.45;;
23732;SDS011;12047;53.450;-2.286;2023-06-10T00:32:04;16.60;;;9.43;;
23732;SDS011;12047;53.450;-2.286;2023-06-10T00:37:04;15.25;;;9.02;;
23732;SDS011;12047;53.450;-2.286;2023-06-10T00:42:05;18.95;;;10.75;;
23732;SDS011;12047;53.450;-2.286;2023-06-10T00:47:07;18.65;;;9.52;;
23732;SDS011;12047;53.450;-2.286;2023-06-10T00:52:07;16.27;;;10.60;;
23732;SDS011;12047;53.450;-2.286;2023-06-10T00:57:08;17.52;;;11.60;;
23732;SDS011;12047;53.450;-2.286;2023-06-10T01:02:09;17.33;;;10.35;;
23732;SDS011;12047;53.450;-2.286;2023-06-10T01:12:23;16.08;;;10.27;;
23732;SDS011;12047;53.450;-2.286;2023-06-10T01:17:31;21.17;;;11.15;;
23732;SDS011;12047;53.450;-2.286;2023-06-10T01:22:32;15.32;;;11.10;;
23732;SDS011;12047;53.450;-2.286;2023-06-10T01:27:36;18.50;;;11.82;;
23732;SDS011;12047;53.450;-2.286;2023-06-10T01:32:40;19.15;;;12.07;;
23732;SDS011;12047;53.450;-2.286;2023-06-10T01:37:46;17.05;;;11.82;;
23732;SDS011;12047;53.450;-2.286;2023-06-10T01:42:48;18.80;;;12.88;;
23732;SDS011;12047;53.450;-2.286;2023-06-10T01:47:48;20.55;;;12.40;;
23732;SDS011;12047;53.450;-2.286;2023-06-10T01:52:49;16.83;;;12.32;;
23732;SDS011;12047;53.450;-2.286;2023-06-10T01:57:50;22.05;;;13.70;;
23732;SDS011;12047;53.450;-2.286;2023-06-10T02:02:51;23.52;;;13.35;;
23732;SDS011;12047;53.450;-2.286;2023-06-10T02:07:52;21.20;;;12.95;;
23732;SDS011;12047;53.450;-2.286;2023-06-10T02:12:52;20.30;;;12.82;;
23732;SDS011;12047;53.450;-2.286;2023-06-10T02:17:53;17.88;;;12.82;;
23732;SDS011;12047;53.450;-2.286;2023-06-10T02:22:54;18.75;;;12.63;;
23732;SDS011;12047;53.450;-2.286;2023-06-10T02:27:55;16.27;;;12.07;;
23732;SDS011;12047;53.450;-2.286;2023-06-10T02:32:55;18.90;;;12.15;;
23732;SDS011;12047;53.450;-2.286;2023-06-10T02:37:56;21.15;;;12.57;;
23732;SDS011;12047;53.450;-2.286;2023-06-10T02:42:57;22.93;;;13.73;;
23732;SDS011;12047;53.450;-2.286;2023-06-10T02:47:58;20.52;;;13.00;;
23732;SDS011;12047;53.450;-2.286;2023-06-10T02:52:58;19.70;;;13.07;;
23732;SDS011;12047;53.450;-2.286;2023-06-10T02:57:59;18.92;;;12.75;;
23732;SDS011;12047;53.450;-2.286;2023-06-10T03:03:00;17.48;;;11.82;;
23732;SDS011;12047;53.450;-2.286;2023-06-10T03:08:03;20.05;;;12.00;;
23732;SDS011;12047;53.450;-2.286;2023-06-10T03:13:04;18.77;;;12.77;;
23732;SDS011;12047;53.450;-2.286;2023-06-10T03:18:05;21.65;;;13.00;;
23732;SDS011;12047;53.450;-2.286;2023-06-10T03:23:06;21.33;;;13.40;;
23732;SDS011;12047;53.450;-2.286;2023-06-10T03:28:07;21.27;;;12.35;;
23732;SDS011;12047;53.450;-2.286;2023-06-10T03:33:07;20.55;;;12.80;;
23732;SDS011;12047;53.450;-2.286;2023-06-10T03:38:08;19.77;;;12.38;;
23732;SDS011;12047;53.450;-2.286;2023-06-10T03:43:08;18.25;;;12.07;;
23732;SDS011;12047;53.450;-2.286;2023-06-10T03:48:09;18.60;;;12.25;;
23732;SDS011;12047;53.450;-2.286;2023-06-10T03:53:11;18.40;;;11.73;;
23732;SDS011;12047;53.450;-2.286;2023-06-10T03:58:11;18.35;;;12.20;;
23732;SDS011;12047;53.450;-2.286;2023-06-10T04:03:14;19.38;;;11.57;;
23732;SDS011;12047;53.450;-2.286;2023-06-10T04:08:15;16.95;;;11.88;;
23732;SDS011;12047;53.450;-2.286;2023-06-10T04:13:16;21.13;;;12.43;;
23732;SDS011;12047;53.450;-2.286;2023-06-10T04:18:16;22.30;;;13.48;;
23732;SDS011;12047;53.450;-2.286;2023-06-10T04:23:17;20.27;;;12.63;;
23732;SDS011;12047;53.450;-2.286;2023-06-10T04:28:18;18.35;;;12.93;;
23732;SDS011;12047;53.450;-2.286;2023-06-10T04:33:18;20.05;;;12.45;;
23732;SDS011;12047;53.450;-2.286;2023-06-10T04:38:19;18.90;;;12.63;;
23732;SDS011;12047;53.450;-2.286;2023-06-10T04:43:19;15.77;;;10.90;;
23732;SDS011;12047;53.450;-2.286;2023-06-10T04:48:20;15.85;;;10.95;;
23732;SDS011;12047;53.450;-2.286;2023-06-10T04:53:21;17.67;;;10.15;;
23732;SDS011;12047;53.450;-2.286;2023-06-10T04:58:22;17.80;;;10.38;;
23732;SDS011;12047;53.450;-2.286;2023-06-10T05:03:22;14.82;;;9.65;;
23732;SDS011;12047;53.450;-2.286;2023-06-10T05:08:23;15.45;;;9.43;;
23732;SDS011;12047;53.450;-2.286;2023-06-10T05:13:25;17.55;;;9.65;;
23732;SDS011;12047;53.450;-2.286;2023-06-10T05:18:25;20.13;;;10.40;;
23732;SDS011;12047;53.450;-2.286;2023-06-10T05:23:26;18.35;;;10.93;;
23732;SDS011;12047;53.450;-2.286;2023-06-10T05:28:27;18.17;;;10.55;;
23732;SDS011;12047;53.450;-2.286;2023-06-10T05:33:27;17.52;;;10.40;;
23732;SDS011;12047;53.450;-2.286;2023-06-10T05:38:28;14.98;;;9.95;;
23732;SDS011;12047;53.450;-2.286;2023-06-10T05:43:29;12.98;;;8.88;;
23732;SDS011;12047;53.450;-2.286;2023-06-10T05:48:29;16.80;;;9.80;;
23732;SDS011;12047;53.450;-2.286;2023-06-10T05:53:31;18.70;;;9.75;;
23732;SDS011;12047;53.450;-2.286;2023-06-10T05:58:32;15.98;;;9.50;;
23732;SDS011;12047;53.450;-2.286;2023-06-10T06:03:32;18.05;;;9.07;;
23732;SDS011;12047;53.450;-2.286;2023-06-10T06:08:33;19.85;;;9.98;;
23732;SDS011;12047;53.450;-2.286;2023-06-10T06:13:33;15.95;;;9.20;;
23732;SDS011;12047;53.450;-2.286;2023-06-10T06:18:34;17.52;;;8.98;;
23732;SDS011;12047;53.450;-2.286;2023-06-10T06:23:35;14.45;;;8.93;;
23732;SDS011;12047;53.450;-2.286;2023-06-10T06:28:35;18.48;;;9.88;;
23732;SDS011;12047;53.450;-2.286;2023-06-10T06:33:35;17.02;;;9.57;;
23732;SDS011;12047;53.450;-2.286;2023-06-10T06:38:36;15.27;;;9.05;;
23732;SDS011;12047;53.450;-2.286;2023-06-10T06:43:36;13.18;;;9.05;;
23732;SDS011;12047;53.450;-2.286;2023-06-10T06:48:37;14.90;;;8.77;;
23732;SDS011;12047;53.450;-2.286;2023-06-10T06:53:37;13.00;;;8.20;;
23732;SDS011;12047;53.450;-2.286;2023-06-10T06:58:44;20.27;;;9.13;;
23732;SDS011;12047;53.450;-2.286;2023-06-10T07:03:44;17.52;;;8.85;;
23732;SDS011;12047;53.450;-2.286;2023-06-10T07:08:45;16.60;;;9.00;;
23732;SDS011;12047;53.450;-2.286;2023-06-10T07:13:45;15.18;;;9.40;;
23732;SDS011;12047;53.450;-2.286;2023-06-10T07:18:46;14.50;;;8.60;;
23732;SDS011;12047;53.450;-2.286;2023-06-10T07:23:46;17.08;;;8.90;;
23732;SDS011;12047;53.450;-2.286;2023-06-10T07:28:47;14.07;;;8.30;;
23732;SDS011;12047;53.450;-2.286;2023-06-10T07:33:47;13.25;;;8.55;;
23732;SDS011;12047;53.450;-2.286;2023-06-10T07:38:48;17.10;;;8.75;;
23732;SDS011;12047;53.450;-2.286;2023-06-10T07:43:48;13.85;;;9.50;;
23732;SDS011;12047;53.450;-2.286;2023-06-10T07:48:54;15.95;;;9.82;;
23732;SDS011;12047;53.450;-2.286;2023-06-10T07:53:55;13.27;;;8.80;;
23732;SDS011;12047;53.450;-2.286;2023-06-10T07:58:55;15.27;;;9.32;;
23732;SDS011;12047;53.450;-2.286;2023-06-10T08:03:56;13.10;;;9.73;;
23732;SDS011;12047;53.450;-2.286;2023-06-10T08:08:56;14.10;;;9.82;;
23732;SDS011;12047;53.450;-2.286;2023-06-10T08:13:57;13.60;;;9.00;;
23732;SDS011;12047;53.450;-2.286;2023-06-10T08:18:57;14.63;;;9.05;;
23732;SDS011;12047;53.450;-2.286;2023-06-10T08:23:58;17.67;;;9.70;;
23732;SDS011;12047;53.450;-2.286;2023-06-10T08:28:58;15.98;;;9.30;;
23732;SDS011;12047;53.450;-2.286;2023-06-10T08:33:59;13.10;;;8.50;;
23732;SDS011;12047;53.450;-2.286;2023-06-10T08:38:59;15.35;;;8.95;;
23732;SDS011;12047;53.450;-2.286;2023-06-10T08:44:33;15.45;;;9.30;;
23732;SDS011;12047;53.450;-2.286;2023-06-10T08:49:29;19.13;;;9.88;;
23732;SDS011;12047;53.450;-2.286;2023-06-10T08:54:34;18.63;;;9.00;;
23732;SDS011;12047;53.450;-2.286;2023-06-10T08:59:38;16.23;;;9.13;;
23732;SDS011;12047;53.450;-2.286;2023-06-10T09:04:39;17.42;;;9.00;;
23732;SDS011;12047;53.450;-2.286;2023-06-10T09:09:41;15.30;;;8.88;;
23732;SDS011;12047;53.450;-2.286;2023-06-10T09:14:43;14.20;;;8.55;;
23732;SDS011;12047;53.450;-2.286;2023-06-10T09:19:44;17.70;;;8.90;;
23732;SDS011;12047;53.450;-2.286;2023-06-10T09:24:46;17.15;;;8.40;;
23732;SDS011;12047;53.450;-2.286;2023-06-10T09:34:51;15.60;;;8.25;;
23732;SDS011;12047;53.450;-2.286;2023-06-10T09:40:11;15.65;;;8.25;;
23732;SDS011;12047;53.450;-2.286;2023-06-10T09:45:12;17.92;;;9.05;;
23732;SDS011;12047;53.450;-2.286;2023-06-10T09:50:12;14.25;;;8.60;;
23732;SDS011;12047;53.450;-2.286;2023-06-10T09:55:13;13.20;;;8.68;;
23732;SDS011;12047;53.450;-2.286;2023-06-10T10:00:14;15.68;;;8.40;;
23732;SDS011;12047;53.450;-2.286;2023-06-10T10:05:17;14.02;;;8.27;;
23732;SDS011;12047;53.450;-2.286;2023-06-10T10:10:19;15.80;;;8.45;;
23732;SDS011;12047;53.450;-2.286;2023-06-10T10:15:21;15.68;;;8.45;;
23732;SDS011;12047;53.450;-2.286;2023-06-10T10:20:27;14.85;;;8.10;;
23732;SDS011;12047;53.450;-2.286;2023-06-10T10:25:34;17.38;;;8.70;;
23732;SDS011;12047;53.450;-2.286;2023-06-10T10:30:42;15.48;;;8.15;;
23732;SDS011;12047;53.450;-2.286;2023-06-10T10:35:45;16.73;;;8.18;;
23732;SDS011;12047;53.450;-2.286;2023-06-10T10:40:47;14.10;;;8.10;;
23732;SDS011;12047;53.450;-2.286;2023-06-10T10:46:09;12.07;;;7.57;;
23732;SDS011;12047;53.450;-2.286;2023-06-10T10:51:12;13.10;;;7.82;;
23732;SDS011;12047;53.450;-2.286;2023-06-10T10:56:16;11.93;;;8.25;;
23732;SDS011;12047;53.450;-2.286;2023-06-10T11:01:20;16.27;;;7.93;;
23732;SDS011;12047;53.450;-2.286;2023-06-10T11:06:20;13.77;;;8.20;;
23732;SDS011;12047;53.450;-2.286;2023-06-10T11:11:24;14.18;;;7.88;;
23732;SDS011;12047;53.450;-2.286;2023-06-10T11:21:28;11.23;;;8.13;;
23732;SDS011;12047;53.450;-2.286;2023-06-10T11:26:30;12.35;;;7.25;;
23732;SDS011;12047;53.450;-2.286;2023-06-10T11:31:41;14.45;;;7.55;;
23732;SDS011;12047;53.450;-2.286;2023-06-10T11:36:43;14.55;;;8.10;;
23732;SDS011;12047;53.450;-2.286;2023-06-10T11:41:45;11.27;;;7.40;;
23732;SDS011;12047;53.450;-2.286;2023-06-10T11:46:47;13.63;;;8.40;;
23732;SDS011;12047;53.450;-2.286;2023-06-10T11:51:48;11.68;;;7.90;;
23732;SDS011;12047;53.450;-2.286;2023-06-10T11:56:49;13.70;;;7.75;;
23732;SDS011;12047;53.450;-2.286;2023-06-10T12:01:50;13.13;;;8.25;;
23732;SDS011;12047;53.450;-2.286;2023-06-10T12:06:51;12.07;;;7.22;;
23732;SDS011;12047;53.450;-2.286;2023-06-10T12:11:54;8.35;;;7.40;;
23732;SDS011;12047;53.450;-2.286;2023-06-10T12:17:05;13.80;;;7.43;;
23732;SDS011;12047;53.450;-2.286;2023-06-10T12:22:05;11.95;;;8.10;;
23732;SDS011;12047;53.450;-2.286;2023-06-10T12:27:06;11.00;;;7.20;;
23732;SDS011;12047;53.450;-2.286;2023-06-10T12:32:12;13.30;;;7.13;;
23732;SDS011;12047;53.450;-2.286;2023-06-10T12:37:15;16.02;;;8.23;;
23732;SDS011;12047;53.450;-2.286;2023-06-10T12:42:16;14.60;;;8.40;;
23732;SDS011;12047;53.450;-2.286;2023-06-10T12:47:17;10.60;;;7.15;;
23732;SDS011;12047;53.450;-2.286;2023-06-10T12:52:17;12.88;;;7.28;;
23732;SDS011;12047;53.450;-2.286;2023-06-10T12:57:18;14.53;;;6.70;;
23732;SDS011;12047;53.450;-2.286;2023-06-10T13:02:19;13.05;;;7.57;;
23732;SDS011;12047;53.450;-2.286;2023-06-10T13:07:20;10.02;;;6.88;;
23732;SDS011;12047;53.450;-2.286;2023-06-10T13:12:22;11.25;;;6.85;;
23732;SDS011;12047;53.450;-2.286;2023-06-10T13:17:23;11.37;;;6.50;;
23732;SDS011;12047;53.450;-2.286;2023-06-10T13:22:24;9.40;;;6.22;;
23732;SDS011;12047;53.450;-2.286;2023-06-10T13:27:25;12.20;;;6.28;;
23732;SDS011;12047;53.450;-2.286;2023-06-10T13:32:25;7.45;;;5.90;;
23732;SDS011;12047;53.450;-2.286;2023-06-10T13:37:26;12.80;;;6.63;;
23732;SDS011;12047;53.450;-2.286;2023-06-10T13:42:26;12.15;;;6.45;;
23732;SDS011;12047;53.450;-2.286;2023-06-10T13:47:29;11.95;;;6.25;;
23732;SDS011;12047;53.450;-2.286;2023-06-10T13:52:29;7.28;;;5.68;;
23732;SDS011;12047;53.450;-2.286;2023-06-10T13:57:30;9.25;;;6.10;;
23732;SDS011;12047;53.450;-2.286;2023-06-10T14:02:30;9.27;;;6.13;;
23732;SDS011;12047;53.450;-2.286;2023-06-10T14:07:31;11.63;;;6.55;;
23732;SDS011;12047;53.450;-2.286;2023-06-10T14:12:31;13.02;;;6.80;;
23732;SDS011;12047;53.450;-2.286;2023-06-10T14:17:38;8.20;;;6.35;;
23732;SDS011;12047;53.450;-2.286;2023-06-10T14:22:39;11.80;;;6.72;;
23732;SDS011;12047;53.450;-2.286;2023-06-10T14:27:40;8.75;;;6.60;;
23732;SDS011;12047;53.450;-2.286;2023-06-10T14:32:41;12.43;;;7.33;;
23732;SDS011;12047;53.450;-2.286;2023-06-10T14:37:41;14.30;;;7.43;;
23732;SDS011;12047;53.450;-2.286;2023-06-10T14:42:45;13.35;;;7.10;;
23732;SDS011;12047;53.450;-2.286;2023-06-10T14:47:45;12.70;;;7.47;;
23732;SDS011;12047;53.450;-2.286;2023-06-10T14:52:47;13.68;;;7.43;;
23732;SDS011;12047;53.450;-2.286;2023-06-10T14:57:47;14.52;;;7.35;;
23732;SDS011;12047;53.450;-2.286;2023-06-10T15:02:48;9.32;;;6.82;;
23732;SDS011;12047;53.450;-2.286;2023-06-10T15:07:48;10.40;;;6.97;;
23732;SDS011;12047;53.450;-2.286;2023-06-10T15:12:49;18.17;;;7.35;;
23732;SDS011;12047;53.450;-2.286;2023-06-10T15:22:57;10.93;;;7.00;;
23732;SDS011;12047;53.450;-2.286;2023-06-10T15:27:57;9.68;;;7.30;;
23732;SDS011;12047;53.450;-2.286;2023-06-10T15:32:58;12.07;;;7.20;;
23732;SDS011;12047;53.450;-2.286;2023-06-10T15:37:58;9.10;;;6.37;;
23732;SDS011;12047;53.450;-2.286;2023-06-10T15:43:02;12.67;;;8.20;;
23732;SDS011;12047;53.450;-2.286;2023-06-10T15:48:03;10.52;;;7.90;;
23732;SDS011;12047;53.450;-2.286;2023-06-10T15:53:04;15.02;;;7.75;;
23732;SDS011;12047;53.450;-2.286;2023-06-10T15:58:04;9.80;;;6.78;;
23732;SDS011;12047;53.450;-2.286;2023-06-10T16:03:05;8.55;;;6.85;;
23732;SDS011;12047;53.450;-2.286;2023-06-10T16:08:05;11.80;;;7.03;;
23732;SDS011;12047;53.450;-2.286;2023-06-10T16:13:06;9.93;;;7.23;;
23732;SDS011;12047;53.450;-2.286;2023-06-10T16:18:06;9.85;;;6.95;;
23732;SDS011;12047;53.450;-2.286;2023-06-10T16:23:07;11.20;;;7.45;;
23732;SDS011;12047;53.450;-2.286;2023-06-10T16:28:07;9.27;;;6.82;;
23732;SDS011;12047;53.450;-2.286;2023-06-10T16:33:08;9.30;;;7.13;;
23732;SDS011;12047;53.450;-2.286;2023-06-10T16:38:09;10.63;;;7.45;;
23732;SDS011;12047;53.450;-2.286;2023-06-10T16:43:09;10.52;;;7.50;;
23732;SDS011;12047;53.450;-2.286;2023-06-10T16:48:09;10.73;;;7.43;;
23732;SDS011;12047;53.450;-2.286;2023-06-10T16:53:10;9.30;;;7.35;;
23732;SDS011;12047;53.450;-2.286;2023-06-10T16:58:10;8.82;;;7.35;;
23732;SDS011;12047;53.450;-2.286;2023-06-10T17:03:11;9.45;;;8.43;;
23732;SDS011;12047;53.450;-2.286;2023-06-10T17:08:12;13.00;;;8.77;;
23732;SDS011;12047;53.450;-2.286;2023-06-10T17:13:13;9.73;;;8.30;;
23732;SDS011;12047;53.450;-2.286;2023-06-10T17:18:13;12.27;;;8.88;;
23732;SDS011;12047;53.450;-2.286;2023-06-10T17:23:14;10.18;;;8.65;;
23732;SDS011;12047;53.450;-2.286;2023-06-10T17:28:14;11.13;;;7.90;;
23732;SDS011;12047;53.450;-2.286;2023-06-10T17:33:15;12.73;;;8.40;;
23732;SDS011;12047;53.450;-2.286;2023-06-10T17:38:15;12.80;;;9.10;;
23732;SDS011;12047;53.450;-2.286;2023-06-10T17:43:16;11.57;;;9.98;;
23732;SDS011;12047;53.450;-2.286;2023-06-10T17:48:17;13.80;;;8.80;;
23732;SDS011;12047;53.450;-2.286;2023-06-10T17:53:18;15.00;;;9.25;;
23732;SDS011;12047;53.450;-2.286;2023-06-10T17:58:18;16.40;;;8.98;;
23732;SDS011;12047;53.450;-2.286;2023-06-10T18:03:19;14.32;;;9.35;;
23732;SDS011;12047;53.450;-2.286;2023-06-10T18:08:26;10.70;;;8.88;;
23732;SDS011;12047;53.450;-2.286;2023-06-10T18:13:28;10.82;;;8.35;;
23732;SDS011;12047;53.450;-2.286;2023-06-10T18:18:28;11.38;;;8.25;;
23732;SDS011;12047;53.450;-2.286;2023-06-10T18:23:29;9.88;;;8.23;;
23732;SDS011;12047;53.450;-2.286;2023-06-10T18:28:29;14.13;;;8.18;;
23732;SDS011;12047;53.450;-2.286;2023-06-10T18:33:30;9.73;;;7.97;;
23732;SDS011;12047;53.450;-2.286;2023-06-10T18:38:30;12.52;;;9.05;;
23732;SDS011;12047;53.450;-2.286;2023-06-10T18:43:31;12.50;;;9.07;;
23732;SDS011;12047;53.450;-2.286;2023-06-10T18:48:31;11.13;;;8.37;;
23732;SDS011;12047;53.450;-2.286;2023-06-10T18:53:32;12.95;;;8.43;;
23732;SDS011;12047;53.450;-2.286;2023-06-10T18:58:33;11.93;;;8.27;;
23732;SDS011;12047;53.450;-2.286;2023-06-10T19:03:34;11.65;;;8.13;;
23732;SDS011;12047;53.450;-2.286;2023-06-10T19:08:35;14.80;;;6.60;;
23732;SDS011;12047;53.450;-2.286;2023-06-10T19:13:36;13.32;;;7.15;;
23732;SDS011;12047;53.450;-2.286;2023-06-10T19:18:36;10.05;;;6.57;;
23732;SDS011;12047;53.450;-2.286;2023-06-10T19:23:38;9.68;;;7.03;;
23732;SDS011;12047;53.450;-2.286;2023-06-10T19:28:38;10.85;;;7.18;;
23732;SDS011;12047;53.450;-2.286;2023-06-10T19:33:39;10.98;;;6.85;;
23732;SDS011;12047;53.450;-2.286;2023-06-10T19:38:39;9.60;;;6.70;;
23732;SDS011;12047;53.450;-2.286;2023-06-10T19:43:40;10.20;;;6.75;;
23732;SDS011;12047;53.450;-2.286;2023-06-10T19:48:42;10.85;;;7.18;;
23732;SDS011;12047;53.450;-2.286;2023-06-10T19:53:43;12.07;;;7.80;;
23732;SDS011;12047;53.450;-2.286;2023-06-10T19:58:45;8.23;;;7.40;;
23732;SDS011;12047;53.450;-2.286;2023-06-10T20:03:46;9.25;;;6.85;;
23732;SDS011;12047;53.450;-2.286;2023-06-10T20:08:47;10.77;;;7.13;;
23732;SDS011;12047;53.450;-2.286;2023-06-10T20:13:47;12.05;;;8.02;;
23732;SDS011;12047;53.450;-2.286;2023-06-10T20:18:50;12.23;;;8.55;;
23732;SDS011;12047;53.450;-2.286;2023-06-10T20:23:51;13.95;;;8.82;;
23732;SDS011;12047;53.450;-2.286;2023-06-10T20:28:52;10.43;;;8.95;;
23732;SDS011;12047;53.450;-2.286;2023-06-10T20:33:53;13.60;;;8.55;;
23732;SDS011;12047;53.450;-2.286;2023-06-10T20:38:54;9.95;;;8.57;;
23732;SDS011;12047;53.450;-2.286;2023-06-10T20:43:54;9.70;;;8.70;;
23732;SDS011;12047;53.450;-2.286;2023-06-10T20:48:54;10.02;;;8.98;;
23732;SDS011;12047;53.450;-2.286;2023-06-10T20:53:55;16.05;;;9.18;;
23732;SDS011;12047;53.450;-2.286;2023-06-10T20:58:55;11.52;;;9.13;;
23732;SDS011;12047;53.450;-2.286;2023-06-10T21:03:56;11.52;;;8.85;;
23732;SDS011;12047;53.450;-2.286;2023-06-10T21:08:56;14.77;;;9.67;;
23732;SDS011;12047;53.450;-2.286;2023-06-10T21:13:57;10.07;;;8.82;;
23732;SDS011;12047;53.450;-2.286;2023-06-10T21:18:57;12.85;;;8.57;;
23732;SDS011;12047;53.450;-2.286;2023-06-10T21:23:58;10.57;;;8.95;;
23732;SDS011;12047;53.450;-2.286;2023-06-10T21:28:58;10.70;;;9.40;;
23732;SDS011;12047;53.450;-2.286;2023-06-10T21:33:59;13.15;;;9.05;;
23732;SDS011;12047;53.450;-2.286;2023-06-10T21:38:59;9.07;;;8.15;;
23732;SDS011;12047;53.450;-2.286;2023-06-10T21:44:00;12.25;;;8.68;;
23732;SDS011;12047;53.450;-2.286;2023-06-10T21:49:01;10.63;;;8.80;;
23732;SDS011;12047;53.450;-2.286;2023-06-10T21:54:02;13.05;;;9.15;;
23732;SDS011;12047;53.450;-2.286;2023-06-10T21:59:03;14.70;;;9.37;;
23732;SDS011;12047;53.450;-2.286;2023-06-10T22:04:03;10.27;;;8.27;;
23732;SDS011;12047;53.450;-2.286;2023-06-10T22:09:04;12.75;;;8.57;;
23732;SDS011;12047;53.450;-2.286;2023-06-10T22:14:05;12.40;;;8.90;;
23732;SDS011;12047;53.450;-2.286;2023-06-10T22:19:06;9.95;;;8.45;;
23732;SDS011;12047;53.450;-2.286;2023-06-10T22:24:07;12.35;;;9.10;;
23732;SDS011;12047;53.450;-2.286;2023-06-10T22:29:07;11.18;;;9.00;;
23732;SDS011;12047;53.450;-2.286;2023-06-10T22:34:08;16.95;;;11.30;;
23732;SDS011;12047;53.450;-2.286;2023-06-10T22:39:08;15.32;;;13.73;;
23732;SDS011;12047;53.450;-2.286;2023-06-10T22:44:11;20.25;;;14.90;;
23732;SDS011;12047;53.450;-2.286;2023-06-10T22:49:12;16.98;;;11.60;;
23732;SDS011;12047;53.450;-2.286;2023-06-10T22:54:13;12.55;;;10.45;;
23732;SDS011;12047;53.450;-2.286;2023-06-10T22:59:14;11.82;;;9.52;;
23732;SDS011;12047;53.450;-2.286;2023-06-10T23:04:14;14.02;;;9.65;;
23732;SDS011;12047;53.450;-2.286;2023-06-10T23:09:15;13.57;;;8.90;;
23732;SDS011;12047;53.450;-2.286;2023-06-10T23:14:16;14.70;;;8.45;;
23732;SDS011;12047;53.450;-2.286;2023-06-10T23:19:16;16.85;;;8.52;;
23732;SDS011;12047;53.450;-2.286;2023-06-10T23:24:20;16.30;;;7.57;;
23732;SDS011;12047;53.450;-2.286;2023-06-10T23:29:30;16.45;;;7.95;;
23732;SDS011;12047;53.450;-2.286;2023-06-10T23:34:31;16.00;;;8.35;;
23732;SDS011;12047;53.450;-2.286;2023-06-10T23:39:31;14.38;;;8.05;;
23732;SDS011;12047;53.450;-2.286;2023-06-10T23:44:32;13.90;;;8.18;;
23732;SDS011;12047;53.450;-2.286;2023-06-10T23:49:32;16.48;;;8.00;;
23732;SDS011;12047;53.450;-2.286;2023-06-10T23:54:33;15.18;;;8.00;;
23732;SDS011;12047;53.450;-2.286;2023-06-10T23:59:34;12.15;;;7.43;;
